Time;durP1;ratioP1;P1;durP2;ratioP2;P2;SDS_P1;SDS_P2;PMS_P1;PMS_P2;Temp;Humidity;BMP_temperature;BMP_pressure;BME280_temperature;BME280_humidity;BME280_pressure;Samples;Min_cycle;Max_cycle;Signal;HPM_P1;HPM_P2
2021/12/17 00:00:45;;;;;;;2.47;1.90;;;-0.90;99.90;;;;;;5026556;28;20509;-77
2021/12/17 00:03:18;;;;;;;9.68;3.40;;;-0.70;99.90;;;;;;5025969;28;20124;-77
2021/12/17 00:08:12;;;;;;;17.20;2.35;;;-1.00;99.90;;;;;;5028819;28;20030;-76
2021/12/17 00:10:38;;;;;;;4.40;3.08;;;-1.10;99.90;;;;;;5029841;28;20022;-80
2021/12/17 00:13:05;;;;;;;3.47;3.13;;;-1.10;99.90;;;;;;5029930;28;20040;-81
2021/12/17 00:15:31;;;;;;;9.13;2.95;;;-1.20;99.90;;;;;;5030394;28;20037;-78
2021/12/17 00:18:04;;;;;;;4.57;3.03;;;-1.30;99.90;;;;;;5030025;28;20037;-76
2021/12/17 00:48:24;;;;;;;5.93;3.22;;;-1.70;99.90;;;;;;5031266;28;20035;-77
2021/12/17 00:53:35;;;;;;;5.53;3.38;;;-1.60;99.90;;;;;;5031447;28;20381;-78
2021/12/17 00:56:00;;;;;;;6.32;3.05;;;-1.40;99.90;;;;;;5029728;28;20025;-77
2021/12/17 00:58:26;;;;;;;7.72;2.65;;;-1.40;99.90;;;;;;5030488;28;20017;-78
2021/12/17 01:00:52;;;;;;;6.40;2.22;;;-1.50;99.90;;;;;;5017471;28;20552;-78
2021/12/17 01:03:18;;;;;;;2.08;1.98;;;-1.60;99.90;;;;;;5009649;28;20387;-76
2021/12/17 01:05:44;;;;;;;3.92;1.83;;;-1.50;99.90;;;;;;5010992;28;20386;-76
2021/12/17 01:08:10;;;;;;;5.25;3.47;;;-1.10;99.90;;;;;;5011434;28;20049;-79
2021/12/17 01:10:40;;;;;;;3.05;2.85;;;-0.70;99.90;;;;;;5008896;28;20479;-78
2021/12/17 01:13:10;;;;;;;3.85;3.50;;;-1.40;99.90;;;;;;5009369;28;20040;-80
2021/12/17 01:15:39;;;;;;;7.53;4.32;;;-1.40;99.90;;;;;;5010262;28;20471;-77
2021/12/17 01:18:11;;;;;;;2.37;2.17;;;-1.80;99.90;;;;;;5009197;28;20125;-78
2021/12/17 01:23:43;;;;;;;6.32;4.03;;;-1.20;99.90;;;;;;5012399;28;20407;-77
2021/12/17 01:36:43;;;;;;;6.25;3.05;;;-1.30;99.90;;;;;;5010325;28;20060;-77
2021/12/17 01:42:05;;;;;;;6.40;3.05;;;-1.20;99.90;;;;;;4994257;28;20077;-81
2021/12/17 01:44:33;;;;;;;7.30;2.67;;;-1.40;99.90;;;;;;5011532;28;20398;-78
2021/12/17 01:46:59;;;;;;;4.13;2.10;;;-1.50;99.90;;;;;;5010979;28;20018;-76
2021/12/17 02:00:18;;;;;;;4.68;2.60;;;-1.50;99.90;;;;;;5013957;28;20033;-78
2021/12/17 02:02:51;;;;;;;8.02;4.05;;;-1.40;99.90;;;;;;5013868;28;20030;-76
2021/12/17 02:05:17;;;;;;;5.78;2.85;;;-1.40;99.90;;;;;;5016759;28;20075;-76
2021/12/17 02:07:44;;;;;;;2.85;2.47;;;-0.40;99.90;;;;;;5011626;28;20156;-75
2021/12/17 02:19:24;;;;;;;4.97;2.97;;;-1.10;99.90;;;;;;5012022;28;20022;-76
2021/12/17 02:32:06;;;;;;;7.35;3.20;;;-1.60;99.90;;;;;;5020866;28;20057;-76
2021/12/17 02:37:12;;;;;;;7.78;1.73;;;-1.70;99.90;;;;;;5017773;28;20046;-76
2021/12/17 02:47:41;;;;;;;3.88;2.45;;;-0.70;99.90;;;;;;5013818;28;20084;-77
2021/12/17 02:50:09;;;;;;;7.25;4.03;;;-0.70;99.90;;;;;;5012781;28;20029;-77
2021/12/17 02:52:37;;;;;;;3.00;2.05;;;-1.40;99.90;;;;;;5013029;28;20072;-76
2021/12/17 02:55:05;;;;;;;3.22;2.35;;;-1.00;99.90;;;;;;5019411;28;20025;-76
2021/12/17 02:57:32;;;;;;;3.83;3.38;;;-1.30;99.90;;;;;;5018738;28;20081;-78
2021/12/17 03:00:01;;;;;;;3.17;2.87;;;-1.00;99.90;;;;;;5015900;28;20072;-77
2021/12/17 03:02:31;;;;;;;1.98;1.88;;;-1.00;99.90;;;;;;5017314;28;20780;-78
2021/12/17 03:04:56;;;;;;;;;;;-0.40;99.90;;;;;;5019737;28;20026;-76
2021/12/17 03:07:22;;;;;;;2.90;1.88;;;-0.40;99.90;;;;;;5028061;28;19916;-76
2021/12/17 03:10:05;;;;;;;5.22;2.30;;;-0.50;99.90;;;;;;5012291;28;20120;-77
2021/12/17 03:12:39;;;;;;;5.22;4.63;;;-0.50;99.90;;;;;;5016132;28;20049;-76
2021/12/17 03:25:48;;;;;;;16.85;4.20;;;-0.30;99.90;;;;;;5011149;28;20037;-75
2021/12/17 03:28:13;;;;;;;7.63;3.25;;;-0.50;99.90;;;;;;5014247;28;20049;-76
2021/12/17 03:30:39;;;;;;;4.13;2.67;;;-0.40;99.90;;;;;;5013102;28;20064;-77
2021/12/17 03:33:05;;;;;;;14.95;5.88;;;-0.40;99.90;;;;;;5015743;28;20018;-76
2021/12/17 03:35:30;;;;;;;4.85;3.90;;;-0.40;99.90;;;;;;5012387;28;20529;-76
2021/12/17 03:37:56;;;;;;;6.95;2.80;;;-0.40;99.90;;;;;;5015143;28;20050;-77
2021/12/17 03:40:22;;;;;;;6.50;2.78;;;-0.30;99.90;;;;;;5017475;28;20514;-76
2021/12/17 03:42:51;;;;;;;5.65;3.33;;;-0.20;99.90;;;;;;5020178;28;20457;-76
2021/12/17 03:45:19;;;;;;;2.47;2.25;;;0.30;99.90;;;;;;5022977;28;20026;-75
2021/12/17 03:47:45;;;;;;;5.05;4.28;;;-0.10;99.90;;;;;;5020487;28;20040;-75
2021/12/17 03:50:11;;;;;;;8.63;6.65;;;-0.10;99.90;;;;;;5018566;28;20498;-76
2021/12/17 03:52:37;;;;;;;5.15;2.65;;;0.00;99.90;;;;;;5016775;28;20022;-75
2021/12/17 03:55:04;;;;;;;4.63;2.75;;;0.10;99.90;;;;;;5023850;28;20029;-76
2021/12/17 03:57:30;;;;;;;6.43;3.70;;;0.00;99.90;;;;;;5016898;28;20469;-78
2021/12/17 03:59:55;;;;;;;4.90;3.38;;;0.10;99.90;;;;;;5016337;28;20121;-76
2021/12/17 04:02:21;;;;;;;5.75;4.10;;;0.10;99.90;;;;;;5015709;28;20092;-77
2021/12/17 04:04:47;;;;;;;6.32;3.13;;;0.30;99.90;;;;;;5018514;28;20076;-77
2021/12/17 04:07:13;;;;;;;4.82;3.08;;;0.20;99.90;;;;;;5015461;28;20018;-76
2021/12/17 04:09:38;;;;;;;3.60;2.70;;;0.20;99.90;;;;;;5018127;28;20053;-76
2021/12/17 04:12:09;;;;;;;11.27;3.05;;;0.20;99.90;;;;;;5019859;28;20053;-76
2021/12/17 04:14:43;;;;;;;6.53;3.42;;;0.00;99.90;;;;;;5023642;28;20049;-76
2021/12/17 04:17:10;;;;;;;4.57;2.22;;;-0.10;99.90;;;;;;5021745;28;20025;-76
2021/12/17 04:19:35;;;;;;;5.57;2.75;;;0.00;99.90;;;;;;5019628;28;20453;-76
2021/12/17 04:22:02;;;;;;;3.38;2.47;;;0.20;99.90;;;;;;5024266;28;20053;-76
2021/12/17 04:24:28;;;;;;;7.03;4.10;;;0.00;99.90;;;;;;5014552;28;20387;-77
2021/12/17 04:26:53;;;;;;;17.50;5.30;;;0.00;99.90;;;;;;5014570;28;20026;-76
2021/12/17 04:29:21;;;;;;;4.35;3.95;;;0.00;99.90;;;;;;5014064;28;20037;-76
2021/12/17 04:31:56;;;;;;;6.35;4.88;;;0.20;99.90;;;;;;5012707;28;20414;-76
2021/12/17 04:34:23;;;;;;;7.60;3.70;;;0.10;99.90;;;;;;5013606;28;20045;-77
2021/12/17 04:36:51;;;;;;;5.60;3.00;;;0.00;99.90;;;;;;5012785;28;20482;-76
2021/12/17 04:39:18;;;;;;;8.82;3.47;;;0.00;99.90;;;;;;5011661;28;20548;-77
2021/12/17 04:41:58;;;;;;;3.00;2.38;;;0.00;99.90;;;;;;5013506;28;20025;-76
2021/12/17 04:44:30;;;;;;;9.32;4.50;;;0.20;99.90;;;;;;5013956;28;20033;-77
2021/12/17 04:57:16;;;;;;;6.90;4.13;;;0.20;99.90;;;;;;5014118;28;20117;-77
2021/12/17 04:57:40;;;;;;;11.20;6.15;;;0.20;99.90;;;;;;5014620;28;20536;-78
2021/12/17 05:00:20;;;;;;;6.25;4.70;;;0.10;99.90;;;;;;5012158;28;20498;-75
2021/12/17 05:02:50;;;;;;;15.00;4.35;;;0.00;99.90;;;;;;5013324;28;20033;-78
2021/12/17 05:05:18;;;;;;;5.32;3.25;;;0.00;99.90;;;;;;5020861;28;20041;-76
2021/12/17 05:07:50;;;;;;;7.53;4.10;;;0.00;99.90;;;;;;5014238;28;20034;-75
2021/12/17 05:18:16;;;;;;;4.78;2.90;;;0.10;99.90;;;;;;5013505;28;20395;-77
2021/12/17 05:20:52;;;;;;;8.85;5.40;;;0.10;99.90;;;;;;5013620;28;20033;-76
2021/12/17 05:23:24;;;;;;;6.30;3.60;;;0.20;99.90;;;;;;5012565;28;20056;-77
2021/12/17 05:25:51;;;;;;;7.30;5.13;;;0.20;99.90;;;;;;5013117;28;20022;-76
2021/12/17 05:28:17;;;;;;;10.63;4.97;;;0.30;99.90;;;;;;5011356;28;20022;-76
2021/12/17 05:30:47;;;;;;;13.40;6.68;;;0.30;99.90;;;;;;5010976;28;20026;-77
2021/12/17 05:33:21;;;;;;;18.70;6.47;;;0.20;99.90;;;;;;5010700;28;20034;-76
2021/12/17 05:35:47;;;;;;;10.43;6.32;;;0.20;99.90;;;;;;5010856;28;20032;-77
2021/12/17 05:38:15;;;;;;;12.73;5.30;;;0.30;99.90;;;;;;5010937;28;20052;-77
2021/12/17 05:40:42;;;;;;;12.30;6.13;;;0.30;99.90;;;;;;5011074;28;20041;-76
2021/12/17 05:43:08;;;;;;;9.55;5.25;;;0.50;99.90;;;;;;5013581;28;20107;-77
2021/12/17 05:45:47;;;;;;;10.50;4.15;;;0.40;99.90;;;;;;5011034;28;20030;-80
2021/12/17 05:48:13;;;;;;;8.63;4.43;;;0.30;99.90;;;;;;5010540;28;20026;-80
2021/12/17 05:50:42;;;;;;;14.23;5.43;;;0.30;99.90;;;;;;5011573;28;20275;-82
2021/12/17 05:53:08;;;;;;;6.65;3.90;;;0.30;99.90;;;;;;5011227;28;20029;-77
2021/12/17 05:55:34;;;;;;;5.85;4.13;;;0.40;99.90;;;;;;5011334;28;20438;-78
2021/12/17 05:58:01;;;;;;;10.60;5.43;;;0.40;99.90;;;;;;5012018;28;20049;-78
2021/12/17 06:00:30;;;;;;;13.32;6.18;;;0.40;99.90;;;;;;5011280;28;20042;-76
2021/12/17 06:02:57;;;;;;;6.47;4.93;;;0.40;99.90;;;;;;5011762;28;20618;-77
2021/12/17 06:05:22;;;;;;;9.40;4.45;;;0.30;99.90;;;;;;5011513;28;20033;-79
2021/12/17 06:07:48;;;;;;;11.30;5.53;;;0.40;99.90;;;;;;5011593;28;20501;-77
2021/12/17 06:10:14;;;;;;;10.95;5.72;;;0.40;99.90;;;;;;5010180;28;20508;-78
2021/12/17 06:12:41;;;;;;;7.53;4.75;;;0.40;99.90;;;;;;5009818;28;20129;-76
2021/12/17 06:15:11;;;;;;;7.90;4.70;;;0.50;99.90;;;;;;5011701;28;20032;-77
2021/12/17 06:17:36;;;;;;;9.77;4.75;;;0.60;99.90;;;;;;5014647;28;20441;-76
2021/12/17 06:20:05;;;;;;;10.90;4.57;;;0.70;99.90;;;;;;5013987;28;20030;-75
2021/12/17 06:22:31;;;;;;;9.05;3.50;;;0.80;99.90;;;;;;5012903;28;20113;-78
2021/12/17 06:24:57;;;;;;;9.02;4.88;;;0.60;99.90;;;;;;5011248;28;20438;-76
2021/12/17 06:27:25;;;;;;;12.35;5.85;;;0.70;99.90;;;;;;5011555;28;20049;-76
2021/12/17 06:29:52;;;;;;;8.32;4.75;;;0.60;99.90;;;;;;5011658;28;20022;-77
2021/12/17 06:32:20;;;;;;;9.50;4.78;;;0.60;99.90;;;;;;5009935;28;20080;-75
2021/12/17 06:34:46;;;;;;;21.38;6.18;;;0.70;99.90;;;;;;5011367;28;20249;-78
2021/12/17 06:37:12;;;;;;;11.32;5.53;;;0.60;99.90;;;;;;5010300;28;20054;-76
2021/12/17 06:39:37;;;;;;;9.40;5.97;;;0.70;99.90;;;;;;5011620;28;20421;-77
2021/12/17 06:42:04;;;;;;;14.32;5.35;;;0.80;99.90;;;;;;5021807;28;20316;-76
2021/12/17 06:44:31;;;;;;;10.65;6.80;;;0.80;99.90;;;;;;5015037;28;20018;-78
2021/12/17 06:47:06;;;;;;;10.70;5.45;;;0.80;99.90;;;;;;5007806;28;20037;-77
2021/12/17 06:58:01;;;;;;;13.73;5.07;;;1.00;99.90;;;;;;5008900;28;20022;-77
2021/12/17 07:10:49;;;;;;;21.17;10.13;;;1.00;99.90;;;;;;5011583;28;20225;-75
2021/12/17 07:34:20;;;;;;;25.98;9.20;;;1.30;99.90;;;;;;5011267;28;20025;-76
2021/12/17 07:39:18;;;;;;;17.98;6.75;;;1.20;99.90;;;;;;5009607;28;20613;-75
2021/12/17 07:41:44;;;;;;;16.98;7.30;;;1.30;99.90;;;;;;5010654;28;20042;-76
2021/12/17 07:44:10;;;;;;;15.85;5.13;;;1.40;99.90;;;;;;5010161;28;20045;-76
2021/12/17 07:46:36;;;;;;;16.35;5.88;;;1.40;99.90;;;;;;5010059;28;20018;-76
2021/12/17 07:49:02;;;;;;;14.18;7.90;;;1.50;99.90;;;;;;5010282;28;20133;-77
2021/12/17 07:51:27;;;;;;;15.82;6.03;;;1.50;99.90;;;;;;5011935;28;20026;-77
2021/12/17 07:53:54;;;;;;;18.45;7.20;;;1.50;99.90;;;;;;5012061;28;20549;-76
2021/12/17 07:56:25;;;;;;;16.55;7.50;;;1.40;99.90;;;;;;5012466;28;20109;-78
2021/12/17 07:58:51;;;;;;;20.30;7.32;;;1.50;99.90;;;;;;5011159;28;20022;-76
2021/12/17 08:01:17;;;;;;;20.40;6.28;;;1.50;99.90;;;;;;5011723;28;20391;-76
2021/12/17 08:03:43;;;;;;;18.77;7.38;;;1.50;99.90;;;;;;5012048;28;20025;-77
2021/12/17 08:06:09;;;;;;;11.48;6.28;;;1.60;99.90;;;;;;5015202;28;20045;-75
2021/12/17 08:08:35;;;;;;;19.50;7.75;;;1.60;99.90;;;;;;5013932;28;20025;-77
2021/12/17 08:11:01;;;;;;;17.08;8.82;;;1.60;99.90;;;;;;5031131;28;20039;-83
2021/12/17 08:13:31;;;;;;;13.90;7.35;;;1.70;99.90;;;;;;5020597;28;20030;-76
2021/12/17 08:31:59;;;;;;;15.88;8.13;;;1.90;99.90;;;;;;5029600;28;20022;-77
2021/12/17 08:34:25;;;;;;;16.42;8.20;;;2.00;99.90;;;;;;5028713;28;20025;-77
2021/12/17 08:36:51;;;;;;;19.63;7.88;;;1.90;99.90;;;;;;5029163;28;20036;-78
2021/12/17 08:39:17;;;;;;;18.00;9.15;;;2.00;99.90;;;;;;5045765;28;20034;-76
2021/12/17 08:41:43;;;;;;;19.85;7.53;;;2.00;99.90;;;;;;5029527;28;20116;-78
2021/12/17 08:44:09;;;;;;;18.60;7.47;;;2.00;99.90;;;;;;5027076;28;20026;-76
2021/12/17 08:46:36;;;;;;;20.30;9.73;;;2.00;99.90;;;;;;5030370;28;20033;-76
2021/12/17 08:49:03;;;;;;;23.70;9.05;;;2.00;99.90;;;;;;5029811;28;20108;-78
2021/12/17 08:51:30;;;;;;;16.65;8.35;;;2.00;99.90;;;;;;5029684;28;20506;-76
2021/12/17 08:53:55;;;;;;;17.08;8.07;;;2.00;99.90;;;;;;5034781;28;20496;-76
2021/12/17 08:56:23;;;;;;;18.15;8.02;;;2.10;99.90;;;;;;5036907;28;20029;-77
2021/12/17 08:58:53;;;;;;;15.70;7.22;;;2.00;99.90;;;;;;5033964;28;20100;-76
2021/12/17 09:01:21;;;;;;;18.92;6.78;;;2.00;99.90;;;;;;5034219;28;20341;-77
2021/12/17 09:03:47;;;;;;;22.55;8.63;;;2.20;99.90;;;;;;5029138;28;20029;-77
2021/12/17 09:06:16;;;;;;;24.70;8.93;;;2.30;99.90;;;;;;5029876;28;20052;-76
2021/12/17 09:08:42;;;;;;;18.23;8.95;;;2.40;99.90;;;;;;5029327;28;20057;-77
2021/12/17 09:11:09;;;;;;;17.98;8.93;;;2.40;99.90;;;;;;5030188;28;20490;-76
2021/12/17 09:13:35;;;;;;;18.10;9.00;;;2.40;99.90;;;;;;5033631;28;20017;-77
2021/12/17 09:16:06;;;;;;;25.38;10.20;;;2.50;99.90;;;;;;5037902;28;20120;-76
2021/12/17 09:18:32;;;;;;;25.88;9.05;;;2.50;99.90;;;;;;5054867;28;20032;-77
2021/12/17 09:20:58;;;;;;;20.50;9.15;;;2.50;99.90;;;;;;5037988;28;20037;-77
2021/12/17 09:23:24;;;;;;;28.15;10.48;;;2.50;99.90;;;;;;5037456;28;20504;-78
2021/12/17 09:25:49;;;;;;;20.88;8.15;;;2.50;99.90;;;;;;5039906;28;20064;-77
2021/12/17 09:28:15;;;;;;;18.67;9.23;;;2.60;99.90;;;;;;5037666;28;20034;-77
2021/12/17 09:30:41;;;;;;;13.48;7.05;;;2.70;99.90;;;;;;5032776;28;20386;-77
2021/12/17 09:33:07;;;;;;;25.80;9.18;;;2.80;99.90;;;;;;5034261;28;20462;-77
2021/12/17 09:35:33;;;;;;;17.30;8.60;;;3.00;99.90;;;;;;5039391;28;20053;-78
2021/12/17 09:37:59;;;;;;;12.80;7.80;;;3.10;99.90;;;;;;5032317;28;20529;-76
2021/12/17 09:40:25;;;;;;;20.05;6.50;;;3.20;99.90;;;;;;5028484;28;20124;-77
2021/12/17 09:42:50;;;;;;;20.75;10.98;;;3.30;99.90;;;;;;5029481;28;20021;-77
2021/12/17 09:45:17;;;;;;;25.33;8.93;;;3.20;99.90;;;;;;5038463;28;20025;-76
2021/12/17 09:47:45;;;;;;;24.50;10.38;;;3.30;99.90;;;;;;5038300;28;20021;-76
2021/12/17 09:50:13;;;;;;;31.48;13.75;;;3.30;99.90;;;;;;5031767;28;20072;-77
2021/12/17 09:52:39;;;;;;;28.08;12.23;;;3.30;99.90;;;;;;5029549;28;20104;-76
2021/12/17 09:55:07;;;;;;;22.90;10.38;;;3.10;99.90;;;;;;5033874;28;20060;-76
2021/12/17 09:57:36;;;;;;;29.88;10.10;;;3.10;99.90;;;;;;5048197;28;20029;-76
2021/12/17 10:00:16;;;;;;;28.45;10.65;;;3.10;99.90;;;;;;5030550;28;20041;-75
2021/12/17 10:02:46;;;;;;;19.83;8.02;;;3.00;99.90;;;;;;5031945;28;20055;-75
2021/12/17 10:05:21;;;;;;;26.73;8.88;;;2.90;99.90;;;;;;5033175;28;20116;-76
2021/12/17 10:07:54;;;;;;;18.83;8.90;;;2.80;99.90;;;;;;5025313;28;20029;-76
2021/12/17 10:10:20;;;;;;;22.63;10.05;;;3.00;99.90;;;;;;5019312;28;20018;-76
2021/12/17 10:12:47;;;;;;;24.38;10.13;;;3.00;99.90;;;;;;5018552;28;20014;-76
2021/12/17 10:15:20;;;;;;;22.55;8.02;;;3.10;99.90;;;;;;5021580;28;20017;-76
2021/12/17 10:17:58;;;;;;;18.50;7.88;;;3.30;99.90;;;;;;5018826;28;20025;-75
2021/12/17 10:20:25;;;;;;;17.73;8.80;;;3.30;99.90;;;;;;5022141;28;20117;-76
2021/12/17 10:23:09;;;;;;;15.85;8.43;;;3.20;99.90;;;;;;5024642;28;20030;-76
2021/12/17 10:25:44;;;;;;;26.50;9.02;;;3.30;99.90;;;;;;5020877;28;20022;-77
2021/12/17 10:28:12;;;;;;;17.42;9.20;;;3.50;99.90;;;;;;5020573;28;20017;-75
2021/12/17 10:30:40;;;;;;;16.90;8.00;;;3.50;99.90;;;;;;5027873;28;20025;-76
2021/12/17 10:33:11;;;;;;;33.92;14.35;;;3.50;99.90;;;;;;5021422;28;20022;-76
2021/12/17 10:35:43;;;;;;;25.08;11.82;;;3.50;99.90;;;;;;5023810;28;20022;-76
2021/12/17 10:38:13;;;;;;;31.20;8.63;;;3.40;99.90;;;;;;5027113;28;20053;-76
2021/12/17 10:40:43;;;;;;;19.38;9.43;;;3.40;99.90;;;;;;5032974;28;20091;-76
2021/12/17 10:43:42;;;;;;;19.40;8.30;;;3.30;99.90;;;;;;5036846;28;20014;-77
2021/12/17 10:46:20;;;;;;;25.45;9.88;;;3.30;99.90;;;;;;5030848;28;20087;-77
2021/12/17 10:48:51;;;;;;;22.15;9.73;;;3.30;99.90;;;;;;5012009;28;20026;-78
2021/12/17 10:51:46;;;;;;;32.72;12.15;;;3.40;99.90;;;;;;5015393;28;20097;-76
2021/12/17 10:54:11;;;;;;;18.75;9.18;;;3.30;99.90;;;;;;5017203;28;20097;-76
2021/12/17 10:56:58;;;;;;;17.85;8.85;;;3.30;99.90;;;;;;5018887;28;20022;-76
2021/12/17 10:59:31;;;;;;;19.42;9.18;;;3.30;99.90;;;;;;5031991;28;20467;-75
2021/12/17 11:02:06;;;;;;;18.63;9.18;;;3.40;99.90;;;;;;5026212;28;20026;-76
2021/12/17 11:04:34;;;;;;;23.88;10.88;;;3.30;99.90;;;;;;5022786;28;20030;-76
2021/12/17 11:07:03;;;;;;;22.20;8.07;;;3.40;99.90;;;;;;5028162;28;20013;-77
2021/12/17 11:09:40;;;;;;;27.23;10.10;;;3.40;99.90;;;;;;5039205;28;20072;-77
2021/12/17 11:12:20;;;;;;;18.50;8.20;;;3.50;99.90;;;;;;5029583;28;20080;-77
2021/12/17 11:14:48;;;;;;;17.08;8.60;;;3.50;99.90;;;;;;5031163;28;20029;-77
2021/12/17 11:17:16;;;;;;;20.15;8.65;;;3.70;99.90;;;;;;5033166;28;20030;-77
2021/12/17 11:19:43;;;;;;;31.27;11.48;;;3.90;99.90;;;;;;5040480;28;20049;-77
2021/12/17 11:22:09;;;;;;;28.17;11.63;;;3.80;99.90;;;;;;5030032;28;20120;-76
2021/12/17 11:24:36;;;;;;;20.05;8.93;;;3.80;99.90;;;;;;5020610;28;20105;-76
2021/12/17 11:27:04;;;;;;;21.58;8.43;;;4.50;99.90;;;;;;5019481;28;20049;-76
2021/12/17 11:29:30;;;;;;;22.48;9.13;;;3.80;99.90;;;;;;5017530;28;20044;-77
2021/12/17 11:31:59;;;;;;;20.63;8.10;;;3.90;99.90;;;;;;5012823;28;20589;-77
2021/12/17 11:34:25;;;;;;;17.23;6.30;;;5.70;99.90;;;;;;5016741;28;20422;-76
2021/12/17 11:36:53;;;;;;;22.70;8.27;;;3.90;99.90;;;;;;5029625;28;20214;-78
2021/12/17 11:39:28;;;;;;;17.23;8.85;;;3.90;99.90;;;;;;5030022;28;20030;-76
2021/12/17 11:42:08;;;;;;;18.70;8.05;;;3.90;99.90;;;;;;5018526;28;20036;-77
2021/12/17 11:44:42;;;;;;;22.08;9.35;;;3.90;99.90;;;;;;5019846;28;20368;-77
2021/12/17 11:47:10;;;;;;;19.42;8.13;;;3.90;99.90;;;;;;5019335;28;20026;-77
2021/12/17 11:49:46;;;;;;;17.20;8.27;;;4.00;99.90;;;;;;5019114;28;20021;-76
2021/12/17 11:52:12;;;;;;;17.15;8.68;;;3.90;99.90;;;;;;5020300;28;20634;-76
2021/12/17 11:54:37;;;;;;;17.50;9.10;;;3.90;99.90;;;;;;5015742;28;20030;-77
2021/12/17 11:57:12;;;;;;;21.27;10.25;;;4.00;99.90;;;;;;5017287;28;20049;-76
2021/12/17 11:59:42;;;;;;;21.10;8.57;;;4.00;99.90;;;;;;5019223;28;20037;-75
2021/12/17 12:02:22;;;;;;;25.38;11.15;;;4.50;99.90;;;;;;5017976;28;20049;-77
2021/12/17 12:05:03;;;;;;;22.52;7.78;;;4.30;99.90;;;;;;5018216;28;20026;-76
2021/12/17 12:07:29;;;;;;;23.95;8.70;;;4.60;99.90;;;;;;5024116;28;20333;-77
2021/12/17 12:09:57;;;;;;;23.63;8.15;;;4.60;99.90;;;;;;5022020;28;20210;-76
2021/12/17 12:12:40;;;;;;;20.90;8.27;;;4.80;99.90;;;;;;5023905;28;20010;-77
2021/12/17 12:18:12;;;;;;;20.13;9.52;;;4.90;99.90;;;;;;5022771;28;20021;-76
2021/12/17 12:20:47;;;;;;;16.95;7.68;;;4.90;99.90;;;;;;5023003;28;20061;-77
2021/12/17 12:23:37;;;;;;;18.80;9.15;;;4.90;99.90;;;;;;5020405;28;20022;-76
2021/12/17 12:26:08;;;;;;;18.40;7.85;;;4.90;99.90;;;;;;5019657;28;20392;-76
2021/12/17 12:28:49;;;;;;;22.52;9.45;;;5.00;99.90;;;;;;5022621;28;20302;-76
2021/12/17 12:31:21;;;;;;;23.92;11.13;;;5.10;99.90;;;;;;5023607;28;20127;-76
2021/12/17 12:34:11;;;;;;;24.23;10.60;;;5.10;99.90;;;;;;5031193;28;20028;-77
2021/12/17 12:37:07;;;;;;;21.05;8.05;;;5.20;99.90;;;;;;5029450;28;20303;-78
2021/12/17 12:40:02;;;;;;;16.00;8.75;;;5.20;99.90;;;;;;5030572;28;20571;-76
2021/12/17 12:42:35;;;;;;;16.55;7.45;;;5.10;99.90;;;;;;5030690;28;20112;-77
2021/12/17 12:45:03;;;;;;;26.13;10.40;;;5.10;99.90;;;;;;5033128;28;20051;-77
2021/12/17 12:47:34;;;;;;;14.52;6.70;;;5.20;99.90;;;;;;5033291;28;20049;-77
2021/12/17 12:50:03;;;;;;;19.20;9.68;;;5.30;99.90;;;;;;5018117;28;20108;-78
2021/12/17 12:52:29;;;;;;;29.52;13.20;;;5.30;99.90;;;;;;5025754;28;20030;-78
2021/12/17 12:55:32;;;;;;;19.73;9.65;;;5.10;99.90;;;;;;5017557;28;20061;-77
2021/12/17 12:58:12;;;;;;;21.05;9.63;;;5.20;99.90;;;;;;5045341;28;20084;-77
2021/12/17 13:00:52;;;;;;;22.05;9.82;;;5.10;99.90;;;;;;5016001;28;20058;-77
2021/12/17 13:03:30;;;;;;;20.52;9.30;;;5.30;99.90;;;;;;5019239;28;20088;-77
2021/12/17 13:05:59;;;;;;;21.83;8.45;;;5.20;99.90;;;;;;5009849;28;20091;-76
2021/12/17 13:08:26;;;;;;;22.15;9.32;;;5.40;99.90;;;;;;5019059;28;20671;-77
2021/12/17 13:10:55;;;;;;;19.65;9.90;;;5.40;99.90;;;;;;5033596;28;20022;-79
2021/12/17 13:16:20;;;;;;;15.23;8.75;;;5.40;99.90;;;;;;5018899;28;20109;-76
2021/12/17 13:26:37;;;;;;;17.17;8.18;;;5.40;99.90;;;;;;5037161;28;20029;-77
2021/12/17 13:29:12;;;;;;;17.42;8.25;;;5.40;99.90;;;;;;5038215;28;20036;-77
2021/12/17 13:31:54;;;;;;;23.15;9.18;;;5.20;99.90;;;;;;5035066;28;20050;-77
2021/12/17 13:34:29;;;;;;;25.67;9.73;;;5.30;99.90;;;;;;5037835;28;20034;-78
2021/12/17 13:37:05;;;;;;;18.40;8.85;;;5.40;99.90;;;;;;5032441;28;20505;-76
2021/12/17 13:39:33;;;;;;;22.58;8.48;;;5.40;99.90;;;;;;5030114;28;20522;-77
2021/12/17 13:42:00;;;;;;;20.77;9.02;;;5.40;99.90;;;;;;5029916;28;20053;-75
2021/12/17 13:44:41;;;;;;;18.65;8.65;;;5.40;99.90;;;;;;5030800;28;20447;-77
2021/12/17 13:47:22;;;;;;;17.23;8.38;;;5.50;99.90;;;;;;5033519;28;20495;-78
2021/12/17 13:49:56;;;;;;;11.05;6.47;;;5.50;99.90;;;;;;5033967;28;20064;-77
2021/12/17 13:52:25;;;;;;;25.75;9.93;;;5.50;99.90;;;;;;5029939;28;20088;-77
2021/12/17 13:54:52;;;;;;;12.32;6.53;;;5.50;99.90;;;;;;5031362;28;20048;-77
2021/12/17 13:57:21;;;;;;;15.90;7.63;;;5.50;99.90;;;;;;5032418;28;20512;-76
2021/12/17 13:59:47;;;;;;;;;;;5.50;99.90;;;;;;5030142;28;20037;-78
2021/12/17 14:02:23;;;;;;;8.95;5.90;;;5.40;99.90;;;;;;5029405;28;19909;-76
2021/12/17 14:05:16;;;;;;;7.43;4.97;;;5.30;99.90;;;;;;5031535;28;20079;-76
2021/12/17 14:07:47;;;;;;;9.88;4.90;;;5.30;99.90;;;;;;5028932;28;20589;-77
2021/12/17 14:10:33;;;;;;;7.97;4.80;;;5.10;99.90;;;;;;5031020;28;20171;-76
2021/12/17 14:13:01;;;;;;;17.63;7.10;;;5.10;99.90;;;;;;5030442;28;20120;-75
2021/12/17 14:15:29;;;;;;;9.07;5.60;;;5.10;99.90;;;;;;5031101;28;20032;-76
2021/12/17 14:18:01;;;;;;;10.67;5.03;;;5.10;99.90;;;;;;5030411;28;20385;-77
2021/12/17 14:20:36;;;;;;;18.42;7.28;;;5.00;99.90;;;;;;5031321;28;20029;-77
2021/12/17 14:23:08;;;;;;;19.52;8.50;;;5.10;99.90;;;;;;5030632;28;20092;-77
2021/12/17 14:25:35;;;;;;;12.40;6.80;;;5.00;99.90;;;;;;5033073;28;20028;-77
2021/12/17 14:28:08;;;;;;;19.65;8.90;;;5.00;99.90;;;;;;5035338;28;20018;-77
2021/12/17 14:30:34;;;;;;;19.20;8.25;;;4.90;99.90;;;;;;5032968;28;20195;-77
2021/12/17 14:33:07;;;;;;;16.70;6.55;;;4.80;99.90;;;;;;5036568;28;20041;-78
2021/12/17 14:35:57;;;;;;;15.77;6.60;;;4.80;99.90;;;;;;5029469;28;20025;-76
2021/12/17 14:38:35;;;;;;;10.55;6.60;;;4.80;99.90;;;;;;5032899;28;20063;-79
2021/12/17 14:41:02;;;;;;;14.70;6.68;;;4.90;99.90;;;;;;5031073;28;20411;-77
2021/12/17 14:43:53;;;;;;;16.25;7.63;;;5.00;99.90;;;;;;5030705;28;20025;-77
2021/12/17 14:46:32;;;;;;;14.43;7.95;;;4.90;99.90;;;;;;5030913;28;20028;-78
2021/12/17 14:49:30;;;;;;;13.05;7.88;;;4.90;99.90;;;;;;5029490;28;20273;-76
2021/12/17 14:58:51;;;;;;;14.50;6.57;;;4.80;99.90;;;;;;5032467;28;20111;-78
2021/12/17 15:05:47;;;;;;;9.05;5.45;;;4.70;99.90;;;;;;5034487;28;20481;-79
2021/12/17 15:08:13;;;;;;;12.52;4.75;;;4.80;99.90;;;;;;5032696;28;20128;-78
2021/12/17 15:10:40;;;;;;;12.95;5.57;;;4.80;99.90;;;;;;5031200;28;20057;-78
2021/12/17 15:13:06;;;;;;;12.80;5.82;;;4.80;99.90;;;;;;5030094;28;20234;-77
2021/12/17 15:15:37;;;;;;;18.92;7.85;;;4.80;99.90;;;;;;5034617;28;20040;-76
2021/12/17 15:18:05;;;;;;;14.25;6.35;;;4.80;99.90;;;;;;5029358;28;20102;-77
2021/12/17 15:20:33;;;;;;;11.73;6.70;;;4.70;99.90;;;;;;5031000;28;20037;-76
2021/12/17 15:23:00;;;;;;;15.63;6.97;;;4.80;99.90;;;;;;5033106;28;20534;-76
2021/12/17 15:25:27;;;;;;;11.80;5.88;;;4.80;99.90;;;;;;5026170;28;20487;-76
2021/12/17 15:27:53;;;;;;;11.35;4.82;;;4.80;99.90;;;;;;5043489;28;20040;-76
2021/12/17 15:30:25;;;;;;;11.00;5.30;;;4.80;99.90;;;;;;5026476;28;20029;-76
2021/12/17 15:32:51;;;;;;;19.63;8.05;;;4.90;99.90;;;;;;5028300;28;20021;-76
2021/12/17 15:35:20;;;;;;;16.35;7.82;;;4.80;99.90;;;;;;5034264;28;20031;-75
2021/12/17 15:37:47;;;;;;;11.32;6.07;;;4.70;99.90;;;;;;5029869;28;20132;-76
2021/12/17 15:40:13;;;;;;;12.82;6.45;;;4.60;99.90;;;;;;5037496;28;20255;-76
2021/12/17 15:42:39;;;;;;;11.20;6.55;;;4.50;99.90;;;;;;5040601;28;20066;-77
2021/12/17 15:45:07;;;;;;;9.88;5.30;;;4.50;99.90;;;;;;5044064;28;20032;-76
2021/12/17 15:47:33;;;;;;;12.63;6.57;;;4.50;99.90;;;;;;5040604;28;20315;-76
2021/12/17 15:49:59;;;;;;;13.88;7.63;;;4.40;99.90;;;;;;5042567;28;20454;-76
2021/12/17 15:52:24;;;;;;;10.93;5.65;;;4.30;99.90;;;;;;5041416;28;20017;-77
2021/12/17 15:54:51;;;;;;;18.30;7.18;;;4.30;99.90;;;;;;5043199;28;20243;-77
2021/12/17 15:57:17;;;;;;;24.48;10.45;;;4.20;99.90;;;;;;5037492;28;20098;-77
2021/12/17 15:59:48;;;;;;;10.48;5.18;;;4.20;99.90;;;;;;5039701;28;20038;-76
2021/12/17 16:02:15;;;;;;;16.33;7.07;;;4.20;99.90;;;;;;5037334;28;20025;-76
2021/12/17 16:04:44;;;;;;;14.90;8.35;;;4.30;99.90;;;;;;5037362;28;20032;-77
2021/12/17 16:07:11;;;;;;;9.57;5.93;;;4.30;99.90;;;;;;5038697;28;20100;-76
2021/12/17 16:16:53;;;;;;;14.38;7.68;;;4.40;99.90;;;;;;5040086;28;20264;-77
2021/12/17 16:23:01;;;;;;;16.23;5.45;;;4.20;99.90;;;;;;5017042;28;20033;-77
2021/12/17 16:25:27;;;;;;;16.27;5.72;;;4.10;99.90;;;;;;5031048;28;20383;-77
2021/12/17 16:27:53;;;;;;;15.73;6.20;;;4.00;99.90;;;;;;5014413;28;20022;-77
2021/12/17 16:30:19;;;;;;;7.88;4.25;;;4.00;99.90;;;;;;5027365;28;20040;-76
2021/12/17 16:32:44;;;;;;;12.73;6.55;;;4.10;99.90;;;;;;5012714;28;20657;-76